createdAt,value
2018-11-27T00:02:58.640Z,28.37
2018-11-27T00:08:02.464Z,27.00
2018-11-27T00:13:06.338Z,26.03
2018-11-27T00:18:10.148Z,25.50
2018-11-27T00:23:13.955Z,27.00
2018-11-27T00:28:17.752Z,25.97
2018-11-27T00:33:21.619Z,26.30
2018-11-27T00:38:25.449Z,25.83
2018-11-27T00:43:29.271Z,27.50
2018-11-27T00:48:33.305Z,26.60
2018-11-27T00:53:37.156Z,27.13
2018-11-27T00:58:40.975Z,24.70
2018-11-27T01:03:45.060Z,25.40
2018-11-27T01:08:51.787Z,25.10
2018-11-27T01:13:55.821Z,22.47
2018-11-27T01:18:59.644Z,25.67
2018-11-27T01:24:03.455Z,25.63
2018-11-27T01:29:07.313Z,24.97
2018-11-27T01:34:11.179Z,27.58
2018-11-27T01:39:15.024Z,25.45
2018-11-27T01:44:19.088Z,22.83
2018-11-27T01:49:22.963Z,25.10
2018-11-27T01:54:26.814Z,26.10
2018-11-27T01:59:30.916Z,27.23
2018-11-27T02:04:35.053Z,25.90
2018-11-27T02:09:38.920Z,21.97
2018-11-27T02:14:42.735Z,27.67
2018-11-27T02:19:46.575Z,25.97
2018-11-27T02:24:50.657Z,26.20
2018-11-27T02:29:54.491Z,21.82
2018-11-27T02:34:58.320Z,26.00
2018-11-27T02:40:02.372Z,26.23
2018-11-27T02:45:09.064Z,25.07
2018-11-27T02:50:14.817Z,24.53
2018-11-27T02:55:26.223Z,23.83
2018-11-27T03:00:30.019Z,23.67
2018-11-27T03:05:35.790Z,22.10
2018-11-27T03:10:39.821Z,18.50
2018-11-27T03:15:43.624Z,22.23
2018-11-27T03:20:47.442Z,21.48
2018-11-27T03:25:51.251Z,20.70
2018-11-27T03:30:55.084Z,23.47
2018-11-27T03:35:58.929Z,20.57
2018-11-27T03:41:03.009Z,22.10
2018-11-27T03:46:07.565Z,22.70
2018-11-27T03:51:11.637Z,20.80
2018-11-27T03:56:15.456Z,21.40
2018-11-27T04:01:19.289Z,22.60
2018-11-27T04:06:23.136Z,22.53
2018-11-27T04:11:27.229Z,22.87
2018-11-27T04:16:31.059Z,23.27
2018-11-27T04:21:34.872Z,22.70
2018-11-27T04:26:38.736Z,22.43
2018-11-27T04:31:42.880Z,24.40
2018-11-27T04:36:46.691Z,24.67
2018-11-27T04:41:50.503Z,22.73
2018-11-27T04:46:54.315Z,22.27
2018-11-27T04:51:58.132Z,22.67
2018-11-27T04:57:01.972Z,19.73
2018-11-27T05:02:06.603Z,21.03
2018-11-27T05:07:10.544Z,21.20
2018-11-27T05:12:14.603Z,24.67
2018-11-27T05:17:18.420Z,22.70
2018-11-27T05:22:22.331Z,22.00
2018-11-27T05:27:26.191Z,19.83
2018-11-27T05:32:30.266Z,23.37
2018-11-27T05:37:34.078Z,22.17
2018-11-27T05:42:37.927Z,21.70
2018-11-27T05:47:42.074Z,22.73
2018-11-27T05:52:46.233Z,23.03
2018-11-27T05:57:51.347Z,22.00
2018-11-27T06:02:57.473Z,22.43
2018-11-27T06:08:00.201Z,22.20
2018-11-27T06:13:04.016Z,20.97
2018-11-27T06:18:07.895Z,22.03
2018-11-27T06:23:11.755Z,21.83
2018-11-27T06:28:15.584Z,21.47
2018-11-27T06:33:19.448Z,20.77
2018-11-27T06:38:23.570Z,25.07
2018-11-27T06:43:27.676Z,22.03
2018-11-27T06:48:31.779Z,22.23
2018-11-27T06:53:35.601Z,21.50
2018-11-27T06:58:39.468Z,21.40
2018-11-27T07:03:43.563Z,22.20
2018-11-27T07:08:47.646Z,20.33
2018-11-27T07:13:51.446Z,21.87
2018-11-27T07:18:55.292Z,21.13
2018-11-27T07:23:59.084Z,19.90
2018-11-27T07:29:02.875Z,20.27
2018-11-27T07:34:06.940Z,19.53
2018-11-27T07:39:11.071Z,19.53
2018-11-27T07:44:15.208Z,19.80
2018-11-27T07:49:19.251Z,21.03
2018-11-27T07:54:23.170Z,20.40
2018-11-27T07:59:27.007Z,20.10
2018-11-27T08:04:30.819Z,21.00
2018-11-27T08:09:34.872Z,19.73
2018-11-27T08:14:38.696Z,19.37
2018-11-27T08:19:42.777Z,18.03
2018-11-27T08:24:47.315Z,17.77
2018-11-27T08:29:50.648Z,20.40
2018-11-27T08:34:54.543Z,19.33
2018-11-27T08:39:59.211Z,19.20
2018-11-27T08:45:03.063Z,19.07
2018-11-27T08:50:19.457Z,18.27
2018-11-27T08:55:24.616Z,17.73
2018-11-27T09:00:28.713Z,18.10
2018-11-27T09:05:32.526Z,19.70
2018-11-27T09:10:36.519Z,17.27
2018-11-27T09:15:40.340Z,19.80
2018-11-27T09:20:44.195Z,19.57
2018-11-27T09:25:48.026Z,19.50
2018-11-27T09:30:52.572Z,17.03
2018-11-27T09:35:57.597Z,17.43
2018-11-27T09:41:01.419Z,18.40
2018-11-27T09:46:05.520Z,16.20
2018-11-27T09:51:09.612Z,19.20
2018-11-27T09:56:13.582Z,15.83
2018-11-27T10:01:17.402Z,19.47
2018-11-27T10:06:21.510Z,17.67
2018-11-27T10:11:25.322Z,17.30
2018-11-27T10:16:29.127Z,16.57
2018-11-27T10:21:33.160Z,15.43
2018-11-27T10:26:37.273Z,16.23
2018-11-27T10:31:41.529Z,17.47
2018-11-27T10:36:45.592Z,16.20
2018-11-27T10:41:49.424Z,15.13
2018-11-27T10:46:53.259Z,15.10
2018-11-27T10:51:57.078Z,13.27
2018-11-27T10:57:00.887Z,13.67
2018-11-27T11:02:10.381Z,14.13
2018-11-27T11:07:14.180Z,15.13
2018-11-27T11:12:17.999Z,14.67
2018-11-27T11:17:21.815Z,13.80
2018-11-27T11:22:25.617Z,12.07
2018-11-27T11:27:29.490Z,13.27
2018-11-27T11:32:33.304Z,13.63
2018-11-27T11:37:37.122Z,14.17
2018-11-27T11:42:40.998Z,11.70
2018-11-27T11:47:45.036Z,12.83
2018-11-27T11:52:50.231Z,11.73
2018-11-27T11:57:54.087Z,11.20
2018-11-27T12:02:57.919Z,12.17
2018-11-27T12:08:01.726Z,10.63
2018-11-27T12:13:06.978Z,10.77
2018-11-27T12:18:10.858Z,10.23
2018-11-27T12:23:14.663Z,10.40
2018-11-27T12:28:18.462Z,9.57
2018-11-27T12:33:22.299Z,11.63
2018-11-27T12:38:26.134Z,10.90
2018-11-27T12:43:29.959Z,10.47
2018-11-27T12:48:34.055Z,13.93
2018-11-27T12:53:38.494Z,11.37
2018-11-27T12:58:42.338Z,10.17
2018-11-27T13:03:46.222Z,11.07
2018-11-27T13:08:50.047Z,9.60
2018-11-27T13:13:53.874Z,10.63
2018-11-27T13:18:58.003Z,11.63
2018-11-27T13:24:01.877Z,10.05
2018-11-27T13:29:06.359Z,10.87
2018-11-27T13:34:12.035Z,11.20
2018-11-27T13:39:31.276Z,10.13
2018-11-27T13:44:35.131Z,11.57
2018-11-27T13:49:38.976Z,12.37
2018-11-27T13:54:43.814Z,10.08
2018-11-27T13:59:47.933Z,10.73
2018-11-27T14:04:51.764Z,8.97
2018-11-27T14:09:55.883Z,9.13
2018-11-27T14:14:59.710Z,9.10
2018-11-27T14:20:03.823Z,8.60
2018-11-27T14:25:09.575Z,8.03
2018-11-27T14:30:15.482Z,10.07
2018-11-27T14:35:20.868Z,9.97
2018-11-27T14:40:26.862Z,10.17
2018-11-27T14:45:30.659Z,10.13
2018-11-27T14:50:34.447Z,8.67
2018-11-27T14:55:38.520Z,9.17
2018-11-27T15:00:42.373Z,9.13
2018-11-27T15:05:46.407Z,10.37
2018-11-27T15:10:50.455Z,10.23
2018-11-27T15:15:54.259Z,15.23
2018-11-27T15:20:58.315Z,11.57
2018-11-27T15:26:02.147Z,11.73
2018-11-27T15:31:06.702Z,12.33
2018-11-27T15:36:10.609Z,13.53
2018-11-27T15:41:14.449Z,13.87
2018-11-27T15:46:18.299Z,17.43
2018-11-27T15:51:22.231Z,18.87
2018-11-27T15:56:26.077Z,13.97
2018-11-27T16:01:30.204Z,14.30
2018-11-27T16:06:34.009Z,13.40
2018-11-27T16:11:38.621Z,13.40
2018-11-27T16:16:42.771Z,13.57
2018-11-27T16:21:46.604Z,13.33
2018-11-27T16:26:50.435Z,14.73
2018-11-27T16:31:54.361Z,16.07
2018-11-27T16:42:12.343Z,19.50
2018-11-27T16:47:15.072Z,22.03
2018-11-27T16:52:18.879Z,24.53
2018-11-27T16:57:22.754Z,24.17
2018-11-27T17:02:27.192Z,21.83
2018-11-27T17:07:31.098Z,23.57
2018-11-27T17:12:34.894Z,29.00
2018-11-27T17:17:38.736Z,23.33
2018-11-27T17:22:42.537Z,23.40
2018-11-27T17:27:46.474Z,23.93
2018-11-27T17:32:50.655Z,21.70
2018-11-27T17:37:54.512Z,19.70
2018-11-27T17:42:58.356Z,23.63
2018-11-27T17:48:02.474Z,22.63
2018-11-27T17:53:07.424Z,20.82
2018-11-27T17:58:11.516Z,19.93
2018-11-27T18:03:15.384Z,21.60
2018-11-27T18:08:19.162Z,21.40
2018-11-27T18:13:23.038Z,21.50
2018-11-27T18:18:27.026Z,22.00
2018-11-27T18:23:31.131Z,20.73
2018-11-27T18:28:35.230Z,21.43
2018-11-27T18:33:39.059Z,23.13
2018-11-27T18:38:42.896Z,21.53
2018-11-27T18:43:46.707Z,21.60
2018-11-27T18:48:50.592Z,22.83
2018-11-27T18:53:55.123Z,24.60
2018-11-27T18:58:58.255Z,23.70
2018-11-27T19:04:02.077Z,24.70
2018-11-27T19:09:08.823Z,23.75
2018-11-27T19:14:12.655Z,25.17
2018-11-27T19:19:16.684Z,22.77
2018-11-27T19:24:20.721Z,26.20
2018-11-27T19:29:24.533Z,25.20
2018-11-27T19:34:28.634Z,27.40
2018-11-27T19:39:32.459Z,25.07
2018-11-27T19:44:36.370Z,25.47
2018-11-27T19:49:40.535Z,24.90
2018-11-27T19:54:44.637Z,24.03
2018-11-27T19:59:48.483Z,27.20
2018-11-27T20:04:52.327Z,25.87
2018-11-27T20:09:56.418Z,27.97
2018-11-27T20:15:00.521Z,25.23
2018-11-27T20:20:05.142Z,23.83
2018-11-27T20:25:11.413Z,24.43
2018-11-27T20:30:16.807Z,27.77
2018-11-27T20:35:20.632Z,28.57
2018-11-27T20:40:24.498Z,30.83
2018-11-27T20:45:28.556Z,27.70
2018-11-27T20:50:32.354Z,24.57
2018-11-27T20:55:36.311Z,25.53
2018-11-27T21:00:41.612Z,24.87
2018-11-27T21:05:45.610Z,27.47
2018-11-27T21:10:49.411Z,26.10
2018-11-27T21:15:53.317Z,26.80
2018-11-27T21:20:57.141Z,27.47
2018-11-27T21:26:04.918Z,27.13
2018-11-27T21:31:10.198Z,28.50
2018-11-27T21:36:14.010Z,27.03
2018-11-27T21:41:17.834Z,26.47
2018-11-27T21:46:21.686Z,27.10
2018-11-27T21:51:25.519Z,26.03
2018-11-27T21:56:29.579Z,24.30
2018-11-27T22:01:34.533Z,26.65
2018-11-27T22:06:37.486Z,25.63
2018-11-27T22:11:41.532Z,25.40
2018-11-27T22:16:45.365Z,26.45
2018-11-27T22:21:49.191Z,28.43
2018-11-27T22:26:53.078Z,27.70
2018-11-27T22:31:57.465Z,25.13
2018-11-27T22:37:01.288Z,27.13
2018-11-27T22:42:05.614Z,30.43
2018-11-27T22:47:09.411Z,28.70
2018-11-27T22:52:13.493Z,28.52
2018-11-27T22:57:17.300Z,28.17
2018-11-27T23:02:21.175Z,26.17
2018-11-27T23:07:30.559Z,32.30
2018-11-27T23:12:34.610Z,31.90
2018-11-27T23:17:38.426Z,30.12
2018-11-27T23:22:42.609Z,29.90
2018-11-27T23:27:46.422Z,30.12
2018-11-27T23:32:50.358Z,30.00
2018-11-27T23:37:54.229Z,29.37
2018-11-27T23:42:58.587Z,30.20
2018-11-27T23:48:02.419Z,30.03
2018-11-27T23:53:06.599Z,31.17
2018-11-27T23:58:10.463Z,29.13
